Main page
METAR-TAF:

METAR-TAF

Airports :

Oil platform

Ekofisk, Norway

latitude: 56-33N, longitude: 003-15E, elevation: 3 m

Current weather observation

The report was made 31 minutes ago, at 01:50 UTC
Wind 30 kt from the Southwest
Temperature 9°C
Humidity 87%
Pressure 1023 hPa
Visibility 10 km or more
no clouds below 1500 m and no cumulonimbus

METAR: ENLE 210150Z 23030KT CAVOK 09/07 Q1023 W07/S3

Time: 03:21 (02:21 UTC)

Forecast

The report was made 3 hours and 21 minutes ago, at 23:00 UTC
Forecast valid from 21 at 00 UTC to 21 at 09 UTC
Wind 25 kt from the West/Southwest
Visibility 10 km or more
Scattered clouds at a height of 2500 ft
Probability 30% :
Temporary
from 21 at 00 UTC to 21 at 06 UTC
Visibility: 4000 m
Broken clouds at a height of 1200 ft
mist

TAF: ENLE 202300Z 2100/2109 24025KT 9999 SCT025 PROB30 TEMPO 2100/2106 4000 BR BKN012

Weather observations and forecasts of more than 4000 airports (METAR and TAF reports).

The available stations are represented by yellow and red dots on the map.

Hover mouse over dot to see the name of the station.

Then click to see weather observations and forecasts.

To change the map : click on the green buttons with a black cross to zoom in, on the green button with a dash to zoom out, or on the green arrows for adjacent maps.


METAR-TAF: